Time;durP1;ratioP1;P1;durP2;ratioP2;P2;SDS_P1;SDS_P2;PMS_P1;PMS_P2;Temp;Humidity;BMP_temperature;BMP_pressure;BME280_temperature;BME280_humidity;BME280_pressure;Samples;Min_cycle;Max_cycle;Signal;HPM_P1;HPM_P2
2021/06/04 00:01:32;;;;;;;4.75;2.80;;;;;;;10.44;64.25;97512.82;127479;1096;26233;-89
2021/06/04 00:04:04;;;;;;;3.75;2.75;;;;;;;10.46;64.44;97512.56;127463;1102;22767;-90
2021/06/04 00:06:34;;;;;;;4.50;2.98;;;;;;;10.45;64.28;97508.31;127554;1103;22822;-89
2021/06/04 00:09:08;;;;;;;4.88;2.85;;;;;;;10.44;64.40;97515.47;127492;1102;24168;-89
2021/06/04 00:11:42;;;;;;;4.73;2.98;;;;;;;10.49;64.23;97515.50;127445;1104;22769;-89
2021/06/04 00:14:15;;;;;;;5.50;2.85;;;;;;;10.61;64.12;97515.31;127542;1102;22791;-89
2021/06/04 00:16:48;;;;;;;5.30;3.05;;;;;;;10.68;63.55;97513.22;127562;1104;22769;-89
2021/06/04 00:19:21;;;;;;;6.00;3.03;;;;;;;10.75;63.35;97508.50;127485;1096;22787;-90
2021/06/04 00:21:54;;;;;;;4.53;2.80;;;;;;;10.72;63.75;97508.23;127515;1101;22826;-90
2021/06/04 00:24:25;;;;;;;6.28;2.88;;;;;;;10.69;63.56;97510.31;127438;1102;22945;-89
2021/06/04 00:26:55;;;;;;;5.90;3.70;;;;;;;10.65;63.66;97509.23;127491;1104;22827;-89
2021/06/04 00:29:25;;;;;;;4.70;2.85;;;;;;;10.59;63.67;97502.31;127438;1102;23386;-87
2021/06/04 00:31:56;;;;;;;5.70;2.78;;;;;;;10.52;63.69;97499.08;127392;1101;22769;-87
2021/06/04 00:34:27;;;;;;;4.50;2.78;;;;;;;10.53;63.77;97511.27;127390;1102;23151;-87
2021/06/04 00:36:56;;;;;;;;;;;;;;;10.58;64.02;97513.98;127398;1103;22786;-87
2021/06/04 00:39:29;;;;;;;4.73;3.30;;;;;;;10.52;64.49;97511.53;127407;1101;21478;-87
2021/06/04 00:42:02;;;;;;;5.58;3.20;;;;;;;10.59;63.98;97514.77;127371;1104;22790;-87
2021/06/04 00:44:33;;;;;;;4.08;3.18;;;;;;;10.59;64.33;97514.77;127364;1104;24402;-88
2021/06/04 00:47:05;;;;;;;4.00;2.53;;;;;;;10.50;64.11;97506.48;127394;1100;26321;-89
2021/06/04 00:49:36;;;;;;;3.95;3.20;;;;;;;10.49;64.65;97504.89;127430;1104;22797;-92
2021/06/04 00:52:11;;;;;;;4.23;3.05;;;;;;;10.51;64.57;97508.08;127418;1096;24161;-90
2021/06/04 00:54:43;;;;;;;4.13;3.18;;;;;;;10.46;64.41;97509.91;127549;1096;26426;-89
2021/06/04 00:57:14;;;;;;;6.58;3.60;;;;;;;10.45;64.49;97508.31;127489;1102;22919;-89
2021/06/04 00:59:45;;;;;;;4.10;2.75;;;;;;;10.45;64.20;97509.12;127486;1096;26031;-92
2021/06/04 01:02:19;;;;;;;3.98;2.85;;;;;;;10.45;64.47;97505.66;127547;1104;24160;-93
2021/06/04 01:04:49;;;;;;;6.23;2.93;;;;;;;10.43;64.30;97505.13;127408;1101;22791;-87
2021/06/04 01:07:22;;;;;;;4.13;2.93;;;;;;;10.43;64.60;97507.78;127406;1101;22776;-88
2021/06/04 01:10:08;;;;;;;5.65;3.10;;;;;;;10.45;64.25;97503.81;127446;1102;27527;-91
2021/06/04 01:12:53;;;;;;;5.95;3.28;;;;;;;10.40;64.21;97507.20;127363;1097;47278;-88
2021/06/04 01:15:55;;;;;;;5.28;3.43;;;;;;;10.42;64.48;97504.33;127474;1097;26232;-92
2021/06/04 01:18:37;;;;;;;4.43;2.98;;;;;;;10.38;64.35;97514.62;127395;1104;22784;-94
2021/06/04 01:21:10;;;;;;;4.48;2.90;;;;;;;10.44;64.38;97515.47;127484;1096;26257;-91
2021/06/04 01:24:01;;;;;;;4.73;3.05;;;;;;;10.46;64.13;97510.71;127440;1101;22760;-91
2021/06/04 01:26:32;;;;;;;;;;;;;;;10.50;64.37;97509.14;127484;1101;22840;-90
2021/06/04 01:29:09;;;;;;;4.05;2.88;;;;;;;10.49;64.14;97512.05;127449;1104;21797;-95
2021/06/04 01:31:42;;;;;;;3.63;2.75;;;;;;;10.44;64.17;97510.17;127541;1096;30016;-89
2021/06/04 01:34:16;;;;;;;5.88;3.00;;;;;;;10.42;64.12;97512.28;127530;1104;22843;-92
2021/06/04 01:36:49;;;;;;;5.05;2.78;;;;;;;10.32;64.44;97502.39;127447;1104;22760;-90
2021/06/04 01:39:24;;;;;;;5.45;3.30;;;;;;;10.32;64.45;97505.05;127411;1104;22784;-89
2021/06/04 01:41:57;;;;;;;3.45;2.70;;;;;;;10.33;64.61;97505.84;127433;1102;23398;-90
2021/06/04 01:44:32;;;;;;;2.95;2.58;;;;;;;10.36;64.53;97498.17;127440;1104;22760;-92
2021/06/04 01:47:09;;;;;;;4.23;3.38;;;;;;;10.41;64.50;97505.36;127465;1101;22757;-92
2021/06/04 01:49:53;;;;;;;4.78;2.98;;;;;;;10.38;64.90;97504.02;127795;1101;23220;-88
2021/06/04 01:52:28;;;;;;;6.53;3.23;;;;;;;10.35;64.54;97499.23;127753;1101;22784;-89
2021/06/04 01:55:05;;;;;;;4.78;3.13;;;;;;;10.32;64.84;97501.59;127834;1101;23591;-91
2021/06/04 01:57:41;;;;;;;3.68;2.80;;;;;;;10.28;65.03;97501.31;127814;1101;22794;-88
2021/06/04 02:00:22;;;;;;;3.15;2.75;;;;;;;10.23;64.96;97501.26;127848;1101;23756;-90
2021/06/04 02:02:53;;;;;;;3.98;2.80;;;;;;;10.18;65.27;97503.85;127758;1101;23375;-88
2021/06/04 02:05:26;;;;;;;3.67;3.00;;;;;;;10.18;64.92;97497.75;127773;1101;22760;-92
2021/06/04 02:07:57;;;;;;;3.75;2.80;;;;;;;10.18;65.11;97503.85;127768;1101;22774;-90
2021/06/04 02:10:32;;;;;;;4.88;3.18;;;;;;;10.17;65.13;97506.75;127782;1101;22782;-96
2021/06/04 02:13:03;;;;;;;4.70;3.23;;;;;;;10.17;65.24;97504.11;127766;1101;23683;-92
2021/06/04 02:15:36;;;;;;;3.68;2.73;;;;;;;10.16;65.49;97494.56;127778;1101;25347;-89
2021/06/04 02:18:25;;;;;;;3.50;2.85;;;;;;;10.10;65.73;97502.45;127811;1101;24452;-88
2021/06/04 02:21:01;;;;;;;3.48;2.78;;;;;;;10.03;65.79;97503.73;127796;1096;23261;-89
2021/06/04 02:23:37;;;;;;;4.18;3.10;;;;;;;10.00;65.85;97505.03;127802;1101;22763;-89
2021/06/04 02:26:15;;;;;;;5.80;3.48;;;;;;;10.10;66.10;97509.60;127799;1101;24189;-88
2021/06/04 02:28:55;;;;;;;6.05;2.80;;;;;;;10.17;65.59;97509.41;127874;1101;22797;-91
2021/06/04 02:31:28;;;;;;;5.18;3.30;;;;;;;10.16;65.74;97510.45;127777;1101;22789;-90
2021/06/04 02:34:04;;;;;;;3.67;2.93;;;;;;;10.15;65.56;97511.52;127874;1101;24412;-88
2021/06/04 02:36:38;;;;;;;4.43;3.48;;;;;;;10.10;65.85;97507.75;127866;1101;22769;-89
2021/06/04 02:39:12;;;;;;;4.98;3.33;;;;;;;10.06;65.81;97508.52;127833;1101;22762;-90
2021/06/04 02:41:46;;;;;;;6.83;3.63;;;;;;;10.07;65.81;97502.96;127852;1095;26395;-89
2021/06/04 02:44:21;;;;;;;6.48;3.80;;;;;;;10.11;65.78;97497.95;127884;1100;22762;-86
2021/06/04 02:46:54;;;;;;;6.23;3.68;;;;;;;10.17;65.76;97496.16;127783;1101;22769;-86
2021/06/04 02:49:24;;;;;;;3.43;2.90;;;;;;;10.18;65.68;97495.90;127773;1101;22790;-87
2021/06/04 02:51:57;;;;;;;;;;;;;;;10.16;65.89;97505.16;127814;1101;22768;-88
2021/06/04 02:54:31;;;;;;;4.10;2.60;;;;;;;10.14;66.28;97504.62;127866;1101;22083;-89
2021/06/04 02:57:05;;;;;;;4.45;2.60;;;;;;;10.12;66.78;97499.55;127772;1101;59418;-88
2021/06/04 02:59:37;;;;;;;4.25;3.00;;;;;;;10.11;66.22;97505.90;127793;1096;88511;-88
2021/06/04 03:02:14;;;;;;;4.55;2.68;;;;;;;10.08;66.36;97501.91;127865;1101;23104;-89
2021/06/04 03:04:48;;;;;;;4.78;2.78;;;;;;;10.00;66.68;97505.03;127938;1101;50688;-88
2021/06/04 03:07:23;;;;;;;5.20;3.03;;;;;;;9.95;66.55;97499.67;127866;1101;59668;-90
2021/06/04 03:09:56;;;;;;;5.85;3.10;;;;;;;10.14;66.50;97502.77;127748;1100;51476;-88
2021/06/04 03:12:30;;;;;;;4.85;3.13;;;;;;;10.24;66.58;97500.20;127811;1101;25868;-88
2021/06/04 03:15:02;;;;;;;7.28;3.98;;;;;;;10.35;66.28;97509.03;127813;1096;51007;-89
2021/06/04 03:17:37;;;;;;;4.30;3.38;;;;;;;10.40;66.24;97506.41;127801;1101;51123;-90
2021/06/04 03:20:11;;;;;;;5.95;3.03;;;;;;;10.45;66.02;97511.77;127942;1101;31390;-89
2021/06/04 03:22:43;;;;;;;4.38;2.95;;;;;;;10.50;66.07;97506.48;127907;1097;36397;-89
2021/06/04 03:25:20;;;;;;;6.30;3.45;;;;;;;10.57;65.97;97507.08;127931;1101;22776;-89
2021/06/04 03:27:51;;;;;;;4.43;2.90;;;;;;;10.63;65.93;97508.69;127855;1101;40449;-89
2021/06/04 03:30:27;;;;;;;6.48;2.98;;;;;;;10.68;65.94;97514.02;127912;1101;37985;-89
2021/06/04 03:32:57;;;;;;;4.27;3.10;;;;;;;10.67;65.71;97509.77;127847;1097;49527;-89
2021/06/04 03:35:29;;;;;;;5.98;3.60;;;;;;;10.69;66.02;97507.66;127910;1095;25848;-90
2021/06/04 03:38:00;;;;;;;6.10;3.53;;;;;;;10.70;65.68;97517.23;127924;1101;55545;-90
2021/06/04 03:40:32;;;;;;;4.80;3.78;;;;;;;10.77;65.93;97516.20;127825;1096;47751;-90
2021/06/04 03:43:05;;;;;;;5.95;3.73;;;;;;;10.83;65.94;97515.16;127899;1101;23003;-89
2021/06/04 03:45:39;;;;;;;5.40;3.13;;;;;;;10.85;66.05;97499.81;127892;1101;23842;-89
2021/06/04 03:48:13;;;;;;;5.43;3.50;;;;;;;10.87;66.09;97503.80;127873;1101;54163;-89
2021/06/04 03:50:44;;;;;;;4.90;3.33;;;;;;;10.96;65.88;97512.05;127980;1101;50067;-89
2021/06/04 03:53:15;;;;;;;5.33;3.65;;;;;;;11.04;66.07;97511.56;127989;1096;22766;-90
2021/06/04 03:55:45;;;;;;;6.23;3.68;;;;;;;11.11;65.90;97509.45;127976;1096;22780;-88
2021/06/04 03:58:14;;;;;;;;;;;;;;;11.18;65.97;97512.69;125975;1101;2281533;-87
2021/06/04 04:00:47;;;;;;;4.65;3.20;;;;;;;11.27;66.17;97505.84;127871;1101;63461;-88
2021/06/04 04:03:20;;;;;;;5.80;3.83;;;;;;;11.37;66.23;97514.87;127926;1101;23687;-91
2021/06/04 04:05:51;;;;;;;7.10;3.65;;;;;;;11.46;65.82;97514.11;127935;1101;53009;-88
2021/06/04 04:08:25;;;;;;;4.65;3.33;;;;;;;11.61;65.76;97513.35;127858;1101;22865;-89
2021/06/04 04:10:56;;;;;;;4.98;3.33;;;;;;;11.74;65.59;97506.74;127850;1096;27358;-90
2021/06/04 04:13:28;;;;;;;6.45;3.70;;;;;;;11.85;65.49;97511.84;127753;1101;22787;-94
2021/06/04 04:16:00;;;;;;;5.18;3.70;;;;;;;11.98;65.03;97513.19;127765;1101;23746;-90
2021/06/04 04:18:30;;;;;;;4.78;3.58;;;;;;;12.12;64.81;97513.47;127795;1101;22801;-89
2021/06/04 04:21:02;;;;;;;4.65;3.40;;;;;;;12.26;64.23;97509.21;127753;1101;22773;-90
2021/06/04 04:23:35;;;;;;;6.13;3.73;;;;;;;12.39;64.43;97511.33;127857;1101;23264;-90
2021/06/04 04:26:05;;;;;;;5.93;4.10;;;;;;;12.52;64.29;97509.16;127902;1096;27406;-89
2021/06/04 04:28:38;;;;;;;4.45;3.73;;;;;;;12.61;64.25;97507.56;127797;1101;49902;-89
2021/06/04 04:31:11;;;;;;;6.03;3.97;;;;;;;12.70;64.07;97513.95;127885;1101;22762;-89
2021/06/04 04:33:41;;;;;;;6.00;3.25;;;;;;;12.81;64.05;97504.88;127840;1101;23083;-89
2021/06/04 04:36:13;;;;;;;6.75;3.88;;;;;;;12.91;63.49;97512.02;127866;1101;24094;-90
2021/06/04 04:38:43;;;;;;;4.98;3.58;;;;;;;12.99;62.78;97503.49;127849;1101;22935;-90
2021/06/04 04:41:14;;;;;;;4.15;3.50;;;;;;;13.11;62.59;97508.52;127846;1101;24358;-90
2021/06/04 04:43:47;;;;;;;5.55;3.30;;;;;;;13.23;62.36;97511.66;127807;1101;45778;-90
2021/06/04 04:46:19;;;;;;;5.43;3.53;;;;;;;13.34;61.96;97507.89;127787;1096;63029;-89
2021/06/04 04:48:49;;;;;;;4.78;3.43;;;;;;;13.47;61.95;97503.84;127884;1095;22773;-90
2021/06/04 04:51:21;;;;;;;5.20;3.27;;;;;;;13.62;61.49;97511.75;127716;1097;56507;-88
2021/06/04 04:53:52;;;;;;;4.68;2.83;;;;;;;13.77;60.63;97508.99;127812;1101;23881;-90
2021/06/04 04:56:24;;;;;;;6.35;3.30;;;;;;;13.94;60.25;97500.64;127925;1101;22762;-90
2021/06/04 04:58:55;;;;;;;3.98;2.90;;;;;;;14.11;60.11;97497.58;127751;1101;29404;-89
2021/06/04 05:01:25;;;;;;;4.78;3.53;;;;;;;14.28;59.84;97503.30;127849;1101;45378;-89
2021/06/04 05:03:55;;;;;;;4.70;3.13;;;;;;;14.48;59.88;97499.67;127859;1101;49880;-88
2021/06/04 05:06:25;;;;;;;3.87;3.07;;;;;;;14.75;59.31;97507.95;127948;1101;23950;-89
2021/06/04 05:08:54;;;;;;;;;;;;;;;15.08;59.57;97508.94;126734;1101;1415196;-87
2021/06/04 05:11:24;;;;;;;4.83;2.90;;;;;;;15.39;59.31;97511.24;127739;1096;26572;-91
2021/06/04 05:13:53;;;;;;;;;;;;;;;16.31;58.63;97511.52;127882;1101;22819;-92
2021/06/04 05:16:23;;;;;;;5.08;3.40;;;;;;;18.76;57.83;97504.53;127812;1101;22930;-91
2021/06/04 05:18:53;;;;;;;4.80;3.28;;;;;;;21.43;54.74;97502.90;127812;1101;23105;-91
2021/06/04 05:21:23;;;;;;;4.30;2.95;;;;;;;23.83;51.56;97501.85;127877;1101;24357;-90
2021/06/04 05:23:54;;;;;;;4.18;3.30;;;;;;;25.43;48.76;97504.14;127798;1096;32383;-91
2021/06/04 05:26:26;;;;;;;6.40;2.85;;;;;;;26.79;42.95;97504.22;127817;1101;100077;-89
2021/06/04 05:28:57;;;;;;;4.15;3.13;;;;;;;27.03;38.91;97503.11;127889;1101;24301;-92
2021/06/04 05:31:27;;;;;;;6.58;3.50;;;;;;;27.29;38.01;97505.05;127864;1101;23823;-91
2021/06/04 05:33:58;;;;;;;5.58;3.18;;;;;;;27.82;37.89;97502.34;127905;1101;24313;-90
2021/06/04 05:36:32;;;;;;;4.25;3.35;;;;;;;29.13;38.73;97506.52;119188;1101;5508712;-89
2021/06/04 05:39:08;;;;;;;4.78;3.40;;;;;;;30.28;37.00;97513.51;127911;1101;22929;-90
2021/06/04 05:41:39;;;;;;;5.75;3.98;;;;;;;30.84;35.56;97512.10;127971;1101;26490;-91
2021/06/04 05:44:14;;;;;;;4.50;3.35;;;;;;;31.12;34.28;97512.13;127953;1101;22805;-90
2021/06/04 05:46:44;;;;;;;4.43;3.13;;;;;;;31.13;32.10;97513.69;127942;1101;25861;-90
2021/06/04 05:49:14;;;;;;;5.00;2.95;;;;;;;31.15;32.05;97514.07;127979;1101;22830;-91
2021/06/04 05:51:44;;;;;;;3.80;3.05;;;;;;;31.42;30.66;97514.48;127911;1101;65972;-91
2021/06/04 05:54:16;;;;;;;3.58;2.60;;;;;;;31.79;30.06;97505.02;128027;1101;25814;-90
2021/06/04 05:56:48;;;;;;;4.83;2.88;;;;;;;32.38;30.32;97503.27;127989;1101;22983;-89
2021/06/04 05:59:18;;;;;;;3.43;2.60;;;;;;;32.84;28.96;97510.45;127848;1102;22836;-91
2021/06/04 06:01:49;;;;;;;5.00;2.80;;;;;;;33.56;29.14;97505.16;127903;1101;38206;-90
2021/06/04 06:04:20;;;;;;;4.63;3.00;;;;;;;34.58;28.29;97513.42;127902;1096;35170;-90
2021/06/04 06:06:51;;;;;;;3.68;2.80;;;;;;;35.32;28.25;97513.47;127907;1101;24699;-87
2021/06/04 06:09:23;;;;;;;4.35;2.70;;;;;;;36.35;27.09;97519.88;127969;1096;26964;-88
2021/06/04 06:11:53;;;;;;;4.93;2.75;;;;;;;37.02;26.73;97517.60;128100;1101;22784;-88
2021/06/04 06:14:23;;;;;;;3.05;2.48;;;;;;;36.47;23.18;97505.41;128345;1101;22941;-88
2021/06/04 06:16:53;;;;;;;5.53;2.70;;;;;;;35.31;24.51;97515.45;128186;1096;27167;-88
2021/06/04 06:19:23;;;;;;;4.48;2.58;;;;;;;35.33;23.45;97517.78;128084;1101;23576;-88
2021/06/04 06:21:54;;;;;;;4.15;2.63;;;;;;;35.50;23.37;97515.97;127954;1101;23301;-88
2021/06/04 06:24:24;;;;;;;2.73;2.30;;;;;;;36.32;23.68;97509.66;128143;1100;23509;-88
2021/06/04 06:26:55;;;;;;;4.78;2.63;;;;;;;37.11;23.63;97506.70;127960;1101;22938;-88
2021/06/04 06:29:25;;;;;;;3.80;2.30;;;;;;;37.76;22.43;97514.19;127877;1101;22836;-93
2021/06/04 06:31:55;;;;;;;4.18;2.28;;;;;;;38.57;22.07;97511.08;127789;1096;25877;-92
2021/06/04 06:34:25;;;;;;;3.33;2.13;;;;;;;38.28;21.00;97513.89;127744;1101;22933;-93
2021/06/04 06:36:55;;;;;;;2.15;2.00;;;;;;;39.12;21.33;97516.52;127773;1101;25234;-89
2021/06/04 06:39:29;;;;;;;2.75;2.45;;;;;;;39.70;21.22;97513.41;127837;1101;22788;-89
2021/06/04 06:42:01;;;;;;;2.65;2.45;;;;;;;39.40;20.99;97506.45;127826;1101;22754;-89
2021/06/04 06:44:32;;;;;;;3.33;2.20;;;;;;;39.75;19.67;97507.27;127987;1101;22810;-90
2021/06/04 06:47:03;;;;;;;4.55;2.60;;;;;;;38.82;20.31;97513.08;127892;1101;22753;-90
2021/06/04 06:49:34;;;;;;;4.20;2.90;;;;;;;38.63;20.51;97514.06;127815;1101;38971;-88
2021/06/04 06:52:05;;;;;;;3.63;2.40;;;;;;;39.34;21.20;97511.81;127862;1096;27183;-88
2021/06/04 06:54:41;;;;;;;2.83;2.20;;;;;;;40.44;20.56;97521.05;127787;1096;27224;-89
2021/06/04 06:57:11;;;;;;;3.68;2.55;;;;;;;40.22;18.48;97511.92;127869;1101;23602;-87
2021/06/04 06:59:41;;;;;;;2.13;1.93;;;;;;;40.26;18.30;97515.33;127880;1101;22850;-88
2021/06/04 07:02:12;;;;;;;2.98;2.30;;;;;;;40.14;17.26;97510.66;127870;1101;24939;-88
2021/06/04 07:04:42;;;;;;;4.83;2.15;;;;;;;39.64;18.51;97515.19;127873;1101;22773;-88
2021/06/04 07:07:12;;;;;;;6.95;2.60;;;;;;;39.82;19.07;97509.00;127941;1101;22753;-88
2021/06/04 07:09:42;;;;;;;3.50;2.23;;;;;;;40.79;19.42;97515.31;127869;1100;22756;-93
2021/06/04 07:12:13;;;;;;;4.23;2.43;;;;;;;41.70;19.17;97514.80;127861;1101;23658;-89
2021/06/04 07:14:43;;;;;;;4.75;2.38;;;;;;;42.13;17.30;97510.14;127923;1101;22778;-88
2021/06/04 07:17:13;;;;;;;3.25;1.88;;;;;;;41.55;18.34;97508.27;127933;1101;22910;-87
2021/06/04 07:19:43;;;;;;;3.83;2.25;;;;;;;42.14;18.52;97508.89;127933;1101;22771;-88
2021/06/04 07:22:14;;;;;;;5.75;2.40;;;;;;;43.12;18.04;97513.05;127925;1101;27462;-88
2021/06/04 07:24:43;;;;;;;2.03;1.83;;;;;;;43.57;15.68;97522.38;127907;1101;24801;-89
2021/06/04 07:27:14;;;;;;;3.45;2.35;;;;;;;42.38;17.09;97518.13;127793;1101;24698;-87
2021/06/04 07:29:43;;;;;;;3.28;2.30;;;;;;;42.95;17.36;97518.27;127922;1101;22797;-86
2021/06/04 07:32:14;;;;;;;3.80;2.13;;;;;;;43.49;15.49;97519.16;127919;1101;22847;-88
2021/06/04 07:34:44;;;;;;;4.00;2.33;;;;;;;43.68;17.35;97517.02;127940;1101;22831;-88
2021/06/04 07:37:14;;;;;;;2.57;2.10;;;;;;;44.11;16.69;97513.56;127847;1101;22935;-90
2021/06/04 07:39:44;;;;;;;2.88;2.23;;;;;;;44.87;16.71;97524.20;127948;1101;26924;-89
2021/06/04 07:42:16;;;;;;;4.60;1.83;;;;;;;45.35;16.11;97518.30;127938;1101;22962;-88
2021/06/04 07:44:46;;;;;;;2.38;2.08;;;;;;;45.97;15.39;97517.75;127890;1101;22812;-89
2021/06/04 07:47:16;;;;;;;2.45;1.85;;;;;;;46.52;15.33;97519.57;127873;1101;25449;-88
2021/06/04 07:49:46;;;;;;;2.98;1.90;;;;;;;46.66;14.18;97515.08;127919;1101;23912;-90
2021/06/04 07:52:16;;;;;;;2.10;1.80;;;;;;;45.32;12.43;97524.86;127818;1100;23532;-94
2021/06/04 07:54:46;;;;;;;2.67;1.90;;;;;;;43.50;13.00;97515.92;127871;1101;22899;-91
2021/06/04 07:57:16;;;;;;;2.60;1.88;;;;;;;42.62;14.78;97509.84;127855;1101;22791;-90
2021/06/04 07:59:46;;;;;;;2.05;1.65;;;;;;;43.68;13.72;97511.42;127883;1101;25941;-92
2021/06/04 08:02:16;;;;;;;3.73;1.90;;;;;;;41.91;13.58;97508.27;127867;1101;24823;-88
2021/06/04 08:04:46;;;;;;;2.98;1.93;;;;;;;41.54;14.21;97510.28;127828;1101;22885;-89
2021/06/04 08:07:16;;;;;;;2.50;1.70;;;;;;;41.70;14.21;97507.22;127805;1101;22848;-89
2021/06/04 08:09:46;;;;;;;3.67;1.90;;;;;;;40.58;13.56;97516.94;127851;1096;26416;-90
2021/06/04 08:12:16;;;;;;;5.35;1.90;;;;;;;40.60;12.70;97512.47;127823;1101;24678;-89
2021/06/04 08:14:46;;;;;;;2.20;2.00;;;;;;;39.47;14.00;97501.45;127847;1101;26687;-92
2021/06/04 08:17:16;;;;;;;4.53;1.90;;;;;;;38.64;13.68;97498.98;127886;1101;22780;-89
2021/06/04 08:19:46;;;;;;;2.10;1.73;;;;;;;37.82;14.09;97500.58;127949;1095;27418;-89
2021/06/04 08:22:16;;;;;;;2.15;1.80;;;;;;;37.39;15.99;97496.16;127956;1101;22813;-89
2021/06/04 08:24:47;;;;;;;4.65;2.65;;;;;;;39.00;16.17;97495.11;127936;1096;22763;-89
2021/06/04 08:27:19;;;;;;;3.33;1.68;;;;;;;39.29;13.53;97501.30;127892;1101;22858;-88
2021/06/04 08:29:49;;;;;;;1.78;1.65;;;;;;;37.62;15.07;97495.94;127873;1101;24151;-89
2021/06/04 08:32:19;;;;;;;3.65;1.80;;;;;;;37.87;14.09;97495.30;127870;1101;22760;-89
2021/06/04 08:34:49;;;;;;;3.25;1.83;;;;;;;37.80;15.39;97494.70;127877;1101;23862;-89
2021/06/04 08:37:19;;;;;;;4.70;1.65;;;;;;;37.17;14.45;97492.37;127869;1101;33277;-90
2021/06/04 08:39:49;;;;;;;2.38;1.73;;;;;;;37.03;14.96;97491.51;127799;1101;23319;-90
2021/06/04 08:42:34;;;;;;;2.25;2.05;;;;;;;36.25;16.00;97488.48;127868;1101;24952;-89
2021/06/04 08:45:30;;;;;;;4.25;2.03;;;;;;;35.90;15.68;97498.29;127858;1101;24131;-89
2021/06/04 08:48:17;;;;;;;2.87;1.90;;;;;;;33.96;16.77;97489.83;127873;1101;23041;-90
2021/06/04 08:51:00;;;;;;;2.88;2.00;;;;;;;32.65;17.67;97487.00;127895;1101;25455;-89
2021/06/04 08:53:39;;;;;;;2.43;2.20;;;;;;;31.48;18.61;97493.70;127874;1101;22793;-90
2021/06/04 08:56:14;;;;;;;4.10;2.30;;;;;;;30.32;20.20;97490.45;127802;1101;22763;-90
2021/06/04 08:58:59;;;;;;;2.95;2.65;;;;;;;28.93;21.66;97486.86;127867;1101;22787;-89
2021/06/04 09:01:35;;;;;;;5.98;2.68;;;;;;;27.87;23.25;97477.48;127772;1096;39379;-93
2021/06/04 09:04:09;;;;;;;3.73;2.58;;;;;;;27.65;24.09;97477.22;127831;1096;22766;-90
2021/06/04 09:06:44;;;;;;;4.03;2.98;;;;;;;27.64;24.84;97477.59;127802;1101;22862;-93
2021/06/04 09:09:22;;;;;;;3.53;2.43;;;;;;;27.64;25.42;97472.92;127806;1101;31264;-89
2021/06/04 09:11:57;;;;;;;4.95;2.60;;;;;;;27.45;25.92;97473.02;127757;1096;26423;-89
2021/06/04 09:14:27;;;;;;;3.68;2.63;;;;;;;27.38;26.00;97476.41;127803;1101;24701;-89
2021/06/04 09:17:23;;;;;;;4.08;2.75;;;;;;;26.06;27.37;97477.97;127715;1101;28638;-93
2021/06/04 09:20:05;;;;;;;5.63;2.90;;;;;;;25.66;28.37;97477.12;127842;1096;27418;-92
2021/06/04 09:22:40;;;;;;;3.33;2.60;;;;;;;26.05;28.93;97477.17;127859;1101;23316;-90
2021/06/04 09:25:14;;;;;;;3.38;2.65;;;;;;;26.30;28.36;97477.64;127851;1101;25473;-95
2021/06/04 09:27:49;;;;;;;5.97;3.00;;;;;;;25.79;27.88;97475.09;127813;1101;22779;-91
2021/06/04 09:30:26;;;;;;;3.13;2.38;;;;;;;25.44;28.81;97475.84;127789;1101;26412;-91
2021/06/04 09:33:13;;;;;;;4.73;2.65;;;;;;;25.23;27.72;97467.23;127855;1101;26096;-89
2021/06/04 09:36:05;;;;;;;4.20;2.58;;;;;;;25.34;28.63;97470.20;127919;1101;24416;-90
2021/06/04 09:38:41;;;;;;;3.90;2.55;;;;;;;25.22;28.59;97473.02;127875;1101;22875;-92
2021/06/04 09:41:27;;;;;;;6.73;2.55;;;;;;;25.41;29.56;97465.70;127776;1101;22915;-93
2021/06/04 09:44:22;;;;;;;4.95;2.43;;;;;;;25.04;29.22;97467.16;127896;1101;24855;-91
2021/06/04 09:46:58;;;;;;;5.50;2.93;;;;;;;24.50;29.45;97471.23;127832;1101;24206;-92
2021/06/04 09:49:33;;;;;;;4.88;2.93;;;;;;;24.19;31.43;97466.48;127852;1096;27119;-88
2021/06/04 09:52:34;;;;;;;4.43;2.83;;;;;;;24.40;31.42;97460.11;127828;1101;22756;-94
2021/06/04 09:55:27;;;;;;;4.15;2.55;;;;;;;25.10;31.28;97468.48;127864;1101;37431;-89
2021/06/04 09:58:28;;;;;;;2.88;2.25;;;;;;;25.59;30.73;97463.37;127883;1101;22784;-91
2021/06/04 10:01:10;;;;;;;2.93;2.25;;;;;;;25.75;30.04;97466.84;127866;1101;22834;-90
2021/06/04 10:03:51;;;;;;;6.98;2.80;;;;;;;25.52;29.94;97462.45;127886;1101;24349;-90
2021/06/04 10:06:41;;;;;;;4.23;2.53;;;;;;;25.55;30.34;97464.45;127818;1095;25884;-92
2021/06/04 10:09:33;;;;;;;4.93;2.95;;;;;;;25.92;30.08;97468.38;127858;1101;22780;-88
2021/06/04 10:12:10;;;;;;;4.60;2.80;;;;;;;25.83;28.70;97458.86;127846;1101;22850;-90
2021/06/04 10:14:48;;;;;;;2.23;1.98;;;;;;;25.66;29.94;97458.11;127829;1101;25451;-89
2021/06/04 10:17:41;;;;;;;2.90;2.60;;;;;;;25.16;29.69;97451.56;127788;1101;27191;-91
2021/06/04 10:20:32;;;;;;;6.00;2.80;;;;;;;25.12;30.73;97453.41;127904;1096;24063;-89
2021/06/04 10:23:22;;;;;;;5.85;2.90;;;;;;;24.79;32.02;97456.48;127828;1101;26009;-90
2021/06/04 10:25:58;;;;;;;6.50;2.65;;;;;;;24.83;32.40;97461.98;127796;1101;22759;-92
2021/06/04 10:28:45;;;;;;;6.28;2.45;;;;;;;25.25;32.18;97451.38;127806;1101;23322;-91
2021/06/04 10:31:44;;;;;;;5.25;2.60;;;;;;;25.14;30.95;97450.34;127910;1101;22777;-90
2021/06/04 10:34:32;;;;;;;5.15;2.60;;;;;;;24.78;30.33;97459.55;127841;1101;23075;-90
2021/06/04 10:37:05;;;;;;;3.43;2.35;;;;;;;25.03;31.49;97452.02;127763;1101;23501;-91
2021/06/04 10:39:40;;;;;;;5.55;2.65;;;;;;;25.12;30.05;97444.48;127880;1101;24400;-91
2021/06/04 10:42:20;;;;;;;2.70;2.33;;;;;;;25.04;30.10;97445.45;127880;1101;22732;-91
2021/06/04 10:44:58;;;;;;;3.45;2.20;;;;;;;24.81;30.08;97440.64;127894;1101;22756;-92
2021/06/04 10:47:41;;;;;;;5.08;2.58;;;;;;;24.10;30.79;97438.78;127875;1101;22987;-91
2021/06/04 10:50:21;;;;;;;3.20;2.45;;;;;;;24.14;31.74;97431.53;127836;1101;35856;-91
2021/06/04 10:53:00;;;;;;;2.55;2.35;;;;;;;24.51;31.69;97434.86;127868;1101;48168;-89
2021/06/04 10:55:35;;;;;;;7.10;3.03;;;;;;;24.62;31.24;97426.97;127871;1097;25893;-90
2021/06/04 10:58:16;;;;;;;9.43;3.50;;;;;;;24.68;32.52;97433.72;127819;1101;22790;-90
2021/06/04 11:00:53;;;;;;;4.83;2.75;;;;;;;24.73;30.81;97424.53;127956;1101;23651;-89
2021/06/04 11:03:29;;;;;;;4.70;2.33;;;;;;;24.77;30.76;97431.64;127877;1101;30426;-89
2021/06/04 11:06:06;;;;;;;3.50;2.78;;;;;;;24.35;30.63;97422.41;127906;1101;161447;-89
2021/06/04 11:08:48;;;;;;;2.93;2.20;;;;;;;24.28;32.07;97421.06;127821;1101;22834;-90
2021/06/04 11:11:39;;;;;;;3.40;2.13;;;;;;;23.89;31.34;97417.30;127781;1101;25073;-85
2021/06/04 11:14:36;;;;;;;5.78;2.85;;;;;;;23.50;32.87;97426.19;127600;1101;197387;-90
2021/06/04 11:17:21;;;;;;;4.15;2.68;;;;;;;23.48;32.06;97425.75;127555;1101;51447;-90
2021/06/04 11:19:55;;;;;;;6.07;2.50;;;;;;;23.74;32.66;97417.25;127391;1101;27272;-89
2021/06/04 11:22:30;;;;;;;6.33;2.55;;;;;;;23.91;33.45;97420.45;127510;1096;24438;-89
2021/06/04 11:25:05;;;;;;;3.35;2.55;;;;;;;24.21;34.15;97420.89;127507;1101;24331;-90
2021/06/04 11:27:39;;;;;;;3.93;2.40;;;;;;;24.50;32.86;97416.23;127532;1101;22778;-90
2021/06/04 11:30:15;;;;;;;5.38;2.45;;;;;;;24.61;32.62;97416.48;127619;1101;22783;-91
2021/06/04 11:33:01;;;;;;;4.85;2.58;;;;;;;24.46;32.87;97415.34;127791;1101;22843;-91
2021/06/04 11:35:35;;;;;;;3.55;2.35;;;;;;;24.56;33.18;97415.61;127763;1097;25346;-88
2021/06/04 11:38:13;;;;;;;4.53;2.85;;;;;;;24.77;32.29;97409.13;127740;1101;26934;-89
2021/06/04 11:40:46;;;;;;;3.15;2.48;;;;;;;24.82;32.27;97408.88;127820;1101;22936;-90
2021/06/04 11:43:30;;;;;;;3.90;2.43;;;;;;;24.88;32.10;97400.11;127837;1101;24633;-92
2021/06/04 11:46:28;;;;;;;4.73;2.50;;;;;;;24.92;32.50;97404.85;127747;1101;22756;-93
2021/06/04 11:49:05;;;;;;;2.98;2.50;;;;;;;24.69;31.62;97408.18;127646;1096;26242;-96
2021/06/04 11:51:48;;;;;;;4.03;2.43;;;;;;;24.13;31.27;97400.16;127788;1097;26242;-91
2021/06/04 11:54:35;;;;;;;3.25;2.63;;;;;;;23.75;32.17;97403.36;127789;1101;22762;-89
2021/06/04 11:57:08;;;;;;;3.68;2.58;;;;;;;23.49;33.02;97403.75;127788;1101;27714;-92
2021/06/04 11:59:57;;;;;;;4.03;2.75;;;;;;;23.34;32.84;97396.35;127774;1101;22777;-92
2021/06/04 12:02:45;;;;;;;3.85;2.60;;;;;;;23.18;32.55;97395.48;127729;1101;50380;-93